sensor_id;sensor_type;location;lat;lon;timestamp;P1;durP1;ratioP1;P2;durP2;ratioP2
12076;SDS011;12420;42.676;23.262;2024-03-08T00:01:20;2.90;;;2.70;;
12076;SDS011;12420;42.676;23.262;2024-03-08T00:03:49;2.23;;;2.13;;
12076;SDS011;12420;42.676;23.262;2024-03-08T00:06:17;2.73;;;2.53;;
12076;SDS011;12420;42.676;23.262;2024-03-08T00:08:44;2.77;;;2.57;;
12076;SDS011;12420;42.676;23.262;2024-03-08T00:11:10;2.50;;;2.30;;
12076;SDS011;12420;42.676;23.262;2024-03-08T00:13:37;2.47;;;2.30;;
12076;SDS011;12420;42.676;23.262;2024-03-08T00:16:04;2.30;;;2.20;;
12076;SDS011;12420;42.676;23.262;2024-03-08T00:18:31;2.90;;;2.30;;
12076;SDS011;12420;42.676;23.262;2024-03-08T00:20:59;2.50;;;2.30;;
12076;SDS011;12420;42.676;23.262;2024-03-08T00:23:26;3.07;;;2.77;;
12076;SDS011;12420;42.676;23.262;2024-03-08T00:25:53;3.30;;;3.00;;
12076;SDS011;12420;42.676;23.262;2024-03-08T00:28:21;3.53;;;3.00;;
12076;SDS011;12420;42.676;23.262;2024-03-08T00:30:50;2.90;;;2.70;;
12076;SDS011;12420;42.676;23.262;2024-03-08T00:33:16;3.10;;;2.90;;
12076;SDS011;12420;42.676;23.262;2024-03-08T00:35:43;3.53;;;3.23;;
12076;SDS011;12420;42.676;23.262;2024-03-08T00:38:11;2.70;;;2.50;;
12076;SDS011;12420;42.676;23.262;2024-03-08T00:40:38;2.80;;;2.60;;
12076;SDS011;12420;42.676;23.262;2024-03-08T00:43:06;2.97;;;2.77;;
12076;SDS011;12420;42.676;23.262;2024-03-08T00:45:35;2.97;;;2.77;;
12076;SDS011;12420;42.676;23.262;2024-03-08T00:48:02;3.33;;;3.13;;
12076;SDS011;12420;42.676;23.262;2024-03-08T00:50:30;3.00;;;2.80;;
12076;SDS011;12420;42.676;23.262;2024-03-08T00:52:59;3.50;;;3.20;;
12076;SDS011;12420;42.676;23.262;2024-03-08T00:55:31;2.80;;;2.60;;
12076;SDS011;12420;42.676;23.262;2024-03-08T00:57:58;3.30;;;3.00;;
12076;SDS011;12420;42.676;23.262;2024-03-08T01:00:25;3.37;;;3.07;;
12076;SDS011;12420;42.676;23.262;2024-03-08T01:02:51;3.53;;;3.23;;
12076;SDS011;12420;42.676;23.262;2024-03-08T01:05:18;2.13;;;2.00;;
12076;SDS011;12420;42.676;23.262;2024-03-08T01:07:45;2.20;;;2.00;;
12076;SDS011;12420;42.676;23.262;2024-03-08T01:10:12;1.93;;;1.83;;
12076;SDS011;12420;42.676;23.262;2024-03-08T01:12:40;2.10;;;2.00;;
12076;SDS011;12420;42.676;23.262;2024-03-08T01:15:08;2.30;;;2.10;;
12076;SDS011;12420;42.676;23.262;2024-03-08T01:17:36;2.70;;;2.50;;
12076;SDS011;12420;42.676;23.262;2024-03-08T01:20:03;2.50;;;2.30;;
12076;SDS011;12420;42.676;23.262;2024-03-08T01:22:30;1.87;;;1.77;;
12076;SDS011;12420;42.676;23.262;2024-03-08T01:24:57;2.20;;;2.00;;
12076;SDS011;12420;42.676;23.262;2024-03-08T01:27:24;2.10;;;2.00;;
12076;SDS011;12420;42.676;23.262;2024-03-08T01:29:52;3.13;;;2.00;;
12076;SDS011;12420;42.676;23.262;2024-03-08T01:32:19;2.30;;;2.20;;
12076;SDS011;12420;42.676;23.262;2024-03-08T01:34:48;1.60;;;1.60;;
12076;SDS011;12420;42.676;23.262;2024-03-08T01:37:14;2.13;;;2.03;;
12076;SDS011;12420;42.676;23.262;2024-03-08T01:39:41;2.30;;;2.20;;
12076;SDS011;12420;42.676;23.262;2024-03-08T01:42:08;2.30;;;2.10;;
12076;SDS011;12420;42.676;23.262;2024-03-08T01:44:37;2.50;;;2.30;;
12076;SDS011;12420;42.676;23.262;2024-03-08T01:47:06;2.10;;;2.00;;
12076;SDS011;12420;42.676;23.262;2024-03-08T01:49:33;2.60;;;2.23;;
12076;SDS011;12420;42.676;23.262;2024-03-08T01:52:00;2.90;;;2.00;;
12076;SDS011;12420;42.676;23.262;2024-03-08T01:54:27;2.10;;;1.90;;
12076;SDS011;12420;42.676;23.262;2024-03-08T01:56:55;1.73;;;1.63;;
12076;SDS011;12420;42.676;23.262;2024-03-08T01:59:24;2.37;;;2.17;;
12076;SDS011;12420;42.676;23.262;2024-03-08T02:01:52;2.40;;;2.20;;
12076;SDS011;12420;42.676;23.262;2024-03-08T02:04:23;2.40;;;2.20;;
12076;SDS011;12420;42.676;23.262;2024-03-08T02:06:50;2.40;;;2.30;;
12076;SDS011;12420;42.676;23.262;2024-03-08T02:09:17;2.40;;;2.30;;
12076;SDS011;12420;42.676;23.262;2024-03-08T02:11:43;1.93;;;1.80;;
12076;SDS011;12420;42.676;23.262;2024-03-08T02:14:11;2.33;;;2.13;;
12076;SDS011;12420;42.676;23.262;2024-03-08T02:16:38;2.77;;;2.33;;
12076;SDS011;12420;42.676;23.262;2024-03-08T02:19:04;2.20;;;2.10;;
12076;SDS011;12420;42.676;23.262;2024-03-08T02:21:35;2.50;;;2.27;;
12076;SDS011;12420;42.676;23.262;2024-03-08T02:24:03;2.67;;;2.47;;
12076;SDS011;12420;42.676;23.262;2024-03-08T02:26:30;2.37;;;2.27;;
12076;SDS011;12420;42.676;23.262;2024-03-08T02:28:57;2.60;;;2.40;;
12076;SDS011;12420;42.676;23.262;2024-03-08T02:31:23;2.70;;;2.47;;
12076;SDS011;12420;42.676;23.262;2024-03-08T02:33:50;2.40;;;2.20;;
12076;SDS011;12420;42.676;23.262;2024-03-08T02:36:17;2.77;;;2.53;;
12076;SDS011;12420;42.676;23.262;2024-03-08T02:38:45;3.30;;;3.00;;
12076;SDS011;12420;42.676;23.262;2024-03-08T02:41:12;3.43;;;2.90;;
12076;SDS011;12420;42.676;23.262;2024-03-08T02:43:39;2.97;;;2.70;;
12076;SDS011;12420;42.676;23.262;2024-03-08T02:46:05;2.57;;;2.40;;
12076;SDS011;12420;42.676;23.262;2024-03-08T02:48:32;2.43;;;2.33;;
12076;SDS011;12420;42.676;23.262;2024-03-08T02:50:59;4.07;;;2.70;;
12076;SDS011;12420;42.676;23.262;2024-03-08T02:53:27;2.83;;;2.63;;
12076;SDS011;12420;42.676;23.262;2024-03-08T02:55:55;2.70;;;2.50;;
12076;SDS011;12420;42.676;23.262;2024-03-08T02:58:21;2.60;;;2.40;;
12076;SDS011;12420;42.676;23.262;2024-03-08T03:00:48;3.03;;;2.73;;
12076;SDS011;12420;42.676;23.262;2024-03-08T03:03:15;2.80;;;2.60;;
12076;SDS011;12420;42.676;23.262;2024-03-08T03:05:42;2.13;;;1.93;;
12076;SDS011;12420;42.676;23.262;2024-03-08T03:08:09;1.83;;;1.73;;
12076;SDS011;12420;42.676;23.262;2024-03-08T03:10:37;2.30;;;2.17;;
12076;SDS011;12420;42.676;23.262;2024-03-08T03:13:05;2.10;;;2.00;;
12076;SDS011;12420;42.676;23.262;2024-03-08T03:15:31;1.37;;;1.37;;
12076;SDS011;12420;42.676;23.262;2024-03-08T03:17:59;1.70;;;1.60;;
12076;SDS011;12420;42.676;23.262;2024-03-08T03:20:26;1.50;;;1.40;;
12076;SDS011;12420;42.676;23.262;2024-03-08T03:22:57;1.17;;;1.17;;
12076;SDS011;12420;42.676;23.262;2024-03-08T03:25:26;1.10;;;1.10;;
12076;SDS011;12420;42.676;23.262;2024-03-08T03:27:59;1.20;;;1.20;;
12076;SDS011;12420;42.676;23.262;2024-03-08T03:30:27;1.47;;;1.37;;
12076;SDS011;12420;42.676;23.262;2024-03-08T03:32:58;1.60;;;1.50;;
12076;SDS011;12420;42.676;23.262;2024-03-08T03:35:26;1.93;;;1.60;;
12076;SDS011;12420;42.676;23.262;2024-03-08T03:37:54;1.53;;;1.43;;
12076;SDS011;12420;42.676;23.262;2024-03-08T03:40:30;1.90;;;1.80;;
12076;SDS011;12420;42.676;23.262;2024-03-08T03:42:57;1.70;;;1.60;;
12076;SDS011;12420;42.676;23.262;2024-03-08T03:45:24;1.67;;;1.57;;
12076;SDS011;12420;42.676;23.262;2024-03-08T03:47:53;1.87;;;1.60;;
12076;SDS011;12420;42.676;23.262;2024-03-08T03:50:21;2.10;;;2.00;;
12076;SDS011;12420;42.676;23.262;2024-03-08T03:52:48;2.17;;;1.83;;
12076;SDS011;12420;42.676;23.262;2024-03-08T03:55:15;1.60;;;1.50;;
12076;SDS011;12420;42.676;23.262;2024-03-08T03:57:43;1.40;;;1.40;;
12076;SDS011;12420;42.676;23.262;2024-03-08T04:00:11;2.67;;;1.80;;
12076;SDS011;12420;42.676;23.262;2024-03-08T04:02:40;1.90;;;1.80;;
12076;SDS011;12420;42.676;23.262;2024-03-08T04:05:07;2.03;;;1.80;;
12076;SDS011;12420;42.676;23.262;2024-03-08T04:07:35;1.93;;;1.83;;
12076;SDS011;12420;42.676;23.262;2024-03-08T04:10:02;2.80;;;2.60;;
12076;SDS011;12420;42.676;23.262;2024-03-08T04:12:32;2.10;;;2.00;;
12076;SDS011;12420;42.676;23.262;2024-03-08T04:14:59;2.10;;;2.00;;
12076;SDS011;12420;42.676;23.262;2024-03-08T04:17:26;1.50;;;1.50;;
12076;SDS011;12420;42.676;23.262;2024-03-08T04:19:59;1.90;;;1.80;;
12076;SDS011;12420;42.676;23.262;2024-03-08T04:22:34;1.63;;;1.53;;
12076;SDS011;12420;42.676;23.262;2024-03-08T04:25:01;1.43;;;1.43;;
12076;SDS011;12420;42.676;23.262;2024-03-08T04:27:31;1.60;;;1.50;;
12076;SDS011;12420;42.676;23.262;2024-03-08T04:29:59;1.27;;;1.27;;
12076;SDS011;12420;42.676;23.262;2024-03-08T04:32:27;1.30;;;1.30;;
12076;SDS011;12420;42.676;23.262;2024-03-08T04:34:55;1.67;;;1.57;;
12076;SDS011;12420;42.676;23.262;2024-03-08T04:37:25;1.77;;;1.30;;
12076;SDS011;12420;42.676;23.262;2024-03-08T04:39:56;1.30;;;1.30;;
12076;SDS011;12420;42.676;23.262;2024-03-08T04:42:23;1.73;;;1.60;;
12076;SDS011;12420;42.676;23.262;2024-03-08T04:44:51;1.80;;;1.70;;
12076;SDS011;12420;42.676;23.262;2024-03-08T04:47:21;1.97;;;1.80;;
12076;SDS011;12420;42.676;23.262;2024-03-08T04:49:49;2.07;;;1.97;;
12076;SDS011;12420;42.676;23.262;2024-03-08T04:52:17;1.80;;;1.70;;
12076;SDS011;12420;42.676;23.262;2024-03-08T04:54:45;1.60;;;1.50;;
12076;SDS011;12420;42.676;23.262;2024-03-08T04:57:12;1.40;;;1.40;;
12076;SDS011;12420;42.676;23.262;2024-03-08T04:59:43;1.70;;;1.67;;
12076;SDS011;12420;42.676;23.262;2024-03-08T05:02:10;2.00;;;1.90;;
12076;SDS011;12420;42.676;23.262;2024-03-08T05:04:36;1.93;;;1.83;;
12076;SDS011;12420;42.676;23.262;2024-03-08T05:07:03;2.13;;;2.03;;
12076;SDS011;12420;42.676;23.262;2024-03-08T05:09:30;2.37;;;2.17;;
12076;SDS011;12420;42.676;23.262;2024-03-08T05:11:59;2.43;;;2.27;;
12076;SDS011;12420;42.676;23.262;2024-03-08T05:14:28;2.90;;;2.70;;
12076;SDS011;12420;42.676;23.262;2024-03-08T05:16:54;2.93;;;2.57;;
12076;SDS011;12420;42.676;23.262;2024-03-08T05:19:21;3.67;;;2.77;;
12076;SDS011;12420;42.676;23.262;2024-03-08T05:21:49;2.87;;;2.67;;
12076;SDS011;12420;42.676;23.262;2024-03-08T05:24:16;3.40;;;3.10;;
12076;SDS011;12420;42.676;23.262;2024-03-08T05:26:43;3.40;;;3.10;;
12076;SDS011;12420;42.676;23.262;2024-03-08T05:29:12;3.70;;;3.40;;
12076;SDS011;12420;42.676;23.262;2024-03-08T05:31:42;3.70;;;3.40;;
12076;SDS011;12420;42.676;23.262;2024-03-08T05:34:13;4.40;;;4.00;;
12076;SDS011;12420;42.676;23.262;2024-03-08T05:36:39;4.37;;;3.97;;
12076;SDS011;12420;42.676;23.262;2024-03-08T05:39:09;4.33;;;3.93;;
12076;SDS011;12420;42.676;23.262;2024-03-08T05:41:37;4.73;;;4.17;;
12076;SDS011;12420;42.676;23.262;2024-03-08T05:44:04;5.50;;;4.67;;
12076;SDS011;12420;42.676;23.262;2024-03-08T05:46:32;4.60;;;4.10;;
12076;SDS011;12420;42.676;23.262;2024-03-08T05:48:59;5.10;;;4.60;;
12076;SDS011;12420;42.676;23.262;2024-03-08T05:51:30;4.90;;;4.13;;
12076;SDS011;12420;42.676;23.262;2024-03-08T05:53:57;6.93;;;4.73;;
12076;SDS011;12420;42.676;23.262;2024-03-08T05:56:24;6.07;;;5.00;;
12076;SDS011;12420;42.676;23.262;2024-03-08T05:58:51;10.83;;;5.30;;
12076;SDS011;12420;42.676;23.262;2024-03-08T06:01:17;5.97;;;5.37;;
12076;SDS011;12420;42.676;23.262;2024-03-08T06:03:45;5.13;;;4.63;;
12076;SDS011;12420;42.676;23.262;2024-03-08T06:06:14;7.87;;;4.87;;
12076;SDS011;12420;42.676;23.262;2024-03-08T06:08:43;4.77;;;4.37;;
12076;SDS011;12420;42.676;23.262;2024-03-08T06:11:09;6.43;;;4.40;;
12076;SDS011;12420;42.676;23.262;2024-03-08T06:13:37;7.97;;;4.43;;
12076;SDS011;12420;42.676;23.262;2024-03-08T06:16:06;4.60;;;4.20;;
12076;SDS011;12420;42.676;23.262;2024-03-08T06:18:33;4.93;;;4.33;;
12076;SDS011;12420;42.676;23.262;2024-03-08T06:21:03;4.73;;;4.17;;
12076;SDS011;12420;42.676;23.262;2024-03-08T06:23:30;6.00;;;4.60;;
12076;SDS011;12420;42.676;23.262;2024-03-08T06:25:57;5.70;;;4.60;;
12076;SDS011;12420;42.676;23.262;2024-03-08T06:28:24;6.53;;;4.70;;
12076;SDS011;12420;42.676;23.262;2024-03-08T06:30:50;5.33;;;4.60;;
12076;SDS011;12420;42.676;23.262;2024-03-08T06:33:18;4.90;;;4.00;;
12076;SDS011;12420;42.676;23.262;2024-03-08T06:35:44;4.47;;;4.07;;
12076;SDS011;12420;42.676;23.262;2024-03-08T06:38:13;5.00;;;4.50;;
12076;SDS011;12420;42.676;23.262;2024-03-08T06:40:42;6.33;;;5.33;;
12076;SDS011;12420;42.676;23.262;2024-03-08T06:43:08;5.93;;;4.67;;
12076;SDS011;12420;42.676;23.262;2024-03-08T06:45:39;5.90;;;5.30;;
12076;SDS011;12420;42.676;23.262;2024-03-08T06:48:06;5.60;;;5.03;;
12076;SDS011;12420;42.676;23.262;2024-03-08T06:50:34;5.03;;;4.50;;
12076;SDS011;12420;42.676;23.262;2024-03-08T06:53:02;5.90;;;5.10;;
12076;SDS011;12420;42.676;23.262;2024-03-08T06:55:30;6.37;;;4.90;;
12076;SDS011;12420;42.676;23.262;2024-03-08T06:57:58;5.93;;;4.77;;
12076;SDS011;12420;42.676;23.262;2024-03-08T07:00:24;5.90;;;5.10;;
12076;SDS011;12420;42.676;23.262;2024-03-08T07:02:52;5.40;;;4.87;;
12076;SDS011;12420;42.676;23.262;2024-03-08T07:05:19;5.03;;;4.53;;
12076;SDS011;12420;42.676;23.262;2024-03-08T07:07:46;7.87;;;5.17;;
12076;SDS011;12420;42.676;23.262;2024-03-08T07:10:14;5.00;;;4.50;;
12076;SDS011;12420;42.676;23.262;2024-03-08T07:12:43;6.50;;;4.83;;
12076;SDS011;12420;42.676;23.262;2024-03-08T07:15:09;6.53;;;5.17;;
12076;SDS011;12420;42.676;23.262;2024-03-08T07:17:38;6.47;;;5.20;;
12076;SDS011;12420;42.676;23.262;2024-03-08T07:20:06;7.20;;;4.67;;
12076;SDS011;12420;42.676;23.262;2024-03-08T07:22:37;5.03;;;4.50;;
12076;SDS011;12420;42.676;23.262;2024-03-08T07:25:04;7.40;;;5.60;;
12076;SDS011;12420;42.676;23.262;2024-03-08T07:27:46;5.73;;;5.10;;
12076;SDS011;12420;42.676;23.262;2024-03-08T07:30:13;5.20;;;4.70;;
12076;SDS011;12420;42.676;23.262;2024-03-08T07:33:02;5.23;;;4.70;;
12076;SDS011;12420;42.676;23.262;2024-03-08T07:35:29;5.33;;;4.83;;
12076;SDS011;12420;42.676;23.262;2024-03-08T07:37:56;6.80;;;5.70;;
12076;SDS011;12420;42.676;23.262;2024-03-08T07:40:25;7.10;;;6.40;;
12076;SDS011;12420;42.676;23.262;2024-03-08T07:42:53;8.67;;;6.20;;
12076;SDS011;12420;42.676;23.262;2024-03-08T07:45:20;6.93;;;6.10;;
12076;SDS011;12420;42.676;23.262;2024-03-08T07:47:47;6.93;;;6.23;;
12076;SDS011;12420;42.676;23.262;2024-03-08T07:50:14;10.70;;;5.87;;
12076;SDS011;12420;42.676;23.262;2024-03-08T07:52:41;9.17;;;6.60;;
12076;SDS011;12420;42.676;23.262;2024-03-08T07:55:08;8.67;;;6.93;;
12076;SDS011;12420;42.676;23.262;2024-03-08T07:57:36;8.70;;;6.60;;
12076;SDS011;12420;42.676;23.262;2024-03-08T08:00:05;12.37;;;7.30;;
12076;SDS011;12420;42.676;23.262;2024-03-08T08:02:33;7.67;;;6.10;;
12076;SDS011;12420;42.676;23.262;2024-03-08T08:05:00;7.80;;;6.30;;
12076;SDS011;12420;42.676;23.262;2024-03-08T08:07:27;11.20;;;7.70;;
12076;SDS011;12420;42.676;23.262;2024-03-08T08:09:54;8.17;;;7.10;;
12076;SDS011;12420;42.676;23.262;2024-03-08T08:12:20;7.33;;;6.33;;
12076;SDS011;12420;42.676;23.262;2024-03-08T08:14:47;7.53;;;5.77;;
12076;SDS011;12420;42.676;23.262;2024-03-08T08:17:16;8.07;;;6.00;;
12076;SDS011;12420;42.676;23.262;2024-03-08T08:19:43;7.73;;;5.70;;
12076;SDS011;12420;42.676;23.262;2024-03-08T08:22:10;7.03;;;6.13;;
12076;SDS011;12420;42.676;23.262;2024-03-08T08:24:37;7.87;;;6.50;;
12076;SDS011;12420;42.676;23.262;2024-03-08T08:27:04;11.57;;;7.00;;
12076;SDS011;12420;42.676;23.262;2024-03-08T08:29:30;10.30;;;6.50;;
12076;SDS011;12420;42.676;23.262;2024-03-08T08:31:58;8.77;;;6.83;;
12076;SDS011;12420;42.676;23.262;2024-03-08T08:34:26;16.10;;;9.43;;
12076;SDS011;12420;42.676;23.262;2024-03-08T08:36:53;8.20;;;6.90;;
12076;SDS011;12420;42.676;23.262;2024-03-08T08:39:20;8.23;;;6.87;;
12076;SDS011;12420;42.676;23.262;2024-03-08T08:41:48;11.00;;;7.47;;
12076;SDS011;12420;42.676;23.262;2024-03-08T08:44:15;8.77;;;7.87;;
12076;SDS011;12420;42.676;23.262;2024-03-08T08:46:42;11.00;;;8.73;;
12076;SDS011;12420;42.676;23.262;2024-03-08T08:49:09;17.63;;;8.73;;
12076;SDS011;12420;42.676;23.262;2024-03-08T08:51:41;13.73;;;8.50;;
12076;SDS011;12420;42.676;23.262;2024-03-08T08:54:08;8.50;;;7.70;;
12076;SDS011;12420;42.676;23.262;2024-03-08T08:56:34;9.83;;;7.67;;
12076;SDS011;12420;42.676;23.262;2024-03-08T08:59:02;6.53;;;5.93;;
12076;SDS011;12420;42.676;23.262;2024-03-08T09:01:29;7.63;;;6.00;;
12076;SDS011;12420;42.676;23.262;2024-03-08T09:03:56;6.10;;;5.53;;
12076;SDS011;12420;42.676;23.262;2024-03-08T09:06:23;5.97;;;4.90;;
12076;SDS011;12420;42.676;23.262;2024-03-08T09:08:51;4.67;;;4.27;;
12076;SDS011;12420;42.676;23.262;2024-03-08T09:11:18;5.93;;;4.03;;
12076;SDS011;12420;42.676;23.262;2024-03-08T09:13:45;5.10;;;3.73;;
12076;SDS011;12420;42.676;23.262;2024-03-08T09:16:14;3.80;;;3.40;;
12076;SDS011;12420;42.676;23.262;2024-03-08T09:18:41;3.83;;;3.53;;
12076;SDS011;12420;42.676;23.262;2024-03-08T09:21:08;3.20;;;2.90;;
12076;SDS011;12420;42.676;23.262;2024-03-08T09:23:35;3.60;;;3.30;;
12076;SDS011;12420;42.676;23.262;2024-03-08T09:26:03;3.03;;;2.83;;
12076;SDS011;12420;42.676;23.262;2024-03-08T09:28:34;2.03;;;1.93;;
12076;SDS011;12420;42.676;23.262;2024-03-08T09:31:00;3.03;;;2.70;;
12076;SDS011;12420;42.676;23.262;2024-03-08T09:33:27;3.07;;;2.70;;
12076;SDS011;12420;42.676;23.262;2024-03-08T09:35:54;2.97;;;2.77;;
12076;SDS011;12420;42.676;23.262;2024-03-08T09:38:22;3.03;;;2.73;;
12076;SDS011;12420;42.676;23.262;2024-03-08T09:40:50;3.13;;;2.87;;
12076;SDS011;12420;42.676;23.262;2024-03-08T09:43:18;4.27;;;3.17;;
12076;SDS011;12420;42.676;23.262;2024-03-08T09:45:45;4.53;;;3.00;;
12076;SDS011;12420;42.676;23.262;2024-03-08T09:48:15;3.10;;;2.90;;
12076;SDS011;12420;42.676;23.262;2024-03-08T09:50:44;3.30;;;3.00;;
12076;SDS011;12420;42.676;23.262;2024-03-08T09:53:11;4.53;;;3.40;;
12076;SDS011;12420;42.676;23.262;2024-03-08T09:55:38;5.47;;;3.60;;
12076;SDS011;12420;42.676;23.262;2024-03-08T09:58:07;4.40;;;3.27;;
12076;SDS011;12420;42.676;23.262;2024-03-08T10:00:57;6.07;;;3.53;;
12076;SDS011;12420;42.676;23.262;2024-03-08T10:03:26;3.30;;;3.07;;
12076;SDS011;12420;42.676;23.262;2024-03-08T10:05:53;3.47;;;3.17;;
12076;SDS011;12420;42.676;23.262;2024-03-08T10:08:21;3.30;;;3.00;;
12076;SDS011;12420;42.676;23.262;2024-03-08T10:10:48;3.90;;;3.50;;
12076;SDS011;12420;42.676;23.262;2024-03-08T10:13:17;3.83;;;3.40;;
12076;SDS011;12420;42.676;23.262;2024-03-08T10:15:45;3.10;;;2.80;;
12076;SDS011;12420;42.676;23.262;2024-03-08T10:18:13;3.10;;;2.90;;
12076;SDS011;12420;42.676;23.262;2024-03-08T10:20:40;3.43;;;2.63;;
12076;SDS011;12420;42.676;23.262;2024-03-08T10:23:07;3.50;;;3.20;;
12076;SDS011;12420;42.676;23.262;2024-03-08T10:25:35;3.07;;;2.87;;
12076;SDS011;12420;42.676;23.262;2024-03-08T10:28:02;2.57;;;2.37;;
12076;SDS011;12420;42.676;23.262;2024-03-08T10:30:30;4.63;;;2.27;;
12076;SDS011;12420;42.676;23.262;2024-03-08T10:32:57;3.40;;;2.50;;
12076;SDS011;12420;42.676;23.262;2024-03-08T10:35:25;2.70;;;2.50;;
12076;SDS011;12420;42.676;23.262;2024-03-08T10:37:52;2.60;;;2.40;;
12076;SDS011;12420;42.676;23.262;2024-03-08T10:40:25;2.80;;;2.60;;
12076;SDS011;12420;42.676;23.262;2024-03-08T10:42:53;2.57;;;2.37;;
12076;SDS011;12420;42.676;23.262;2024-03-08T10:45:30;2.40;;;2.20;;
12076;SDS011;12420;42.676;23.262;2024-03-08T10:48:10;4.10;;;3.37;;
12076;SDS011;12420;42.676;23.262;2024-03-08T10:50:51;4.40;;;3.90;;
12076;SDS011;12420;42.676;23.262;2024-03-08T10:53:19;2.70;;;2.50;;
12076;SDS011;12420;42.676;23.262;2024-03-08T10:55:49;2.60;;;2.40;;
12076;SDS011;12420;42.676;23.262;2024-03-08T10:58:18;2.50;;;2.30;;
12076;SDS011;12420;42.676;23.262;2024-03-08T11:00:45;1.93;;;1.83;;
12076;SDS011;12420;42.676;23.262;2024-03-08T11:06:15;3.77;;;2.70;;
12076;SDS011;12420;42.676;23.262;2024-03-08T11:08:43;2.67;;;2.10;;
12076;SDS011;12420;42.676;23.262;2024-03-08T11:11:24;2.50;;;2.30;;
12076;SDS011;12420;42.676;23.262;2024-03-08T11:13:59;2.50;;;2.30;;
12076;SDS011;12420;42.676;23.262;2024-03-08T11:16:37;5.73;;;2.30;;
12076;SDS011;12420;42.676;23.262;2024-03-08T11:19:15;3.43;;;2.03;;
12076;SDS011;12420;42.676;23.262;2024-03-08T11:21:58;2.07;;;1.90;;
12076;SDS011;12420;42.676;23.262;2024-03-08T11:24:26;1.83;;;1.73;;
12076;SDS011;12420;42.676;23.262;2024-03-08T11:26:55;1.87;;;1.77;;
12076;SDS011;12420;42.676;23.262;2024-03-08T11:29:32;1.87;;;1.70;;
12076;SDS011;12420;42.676;23.262;2024-03-08T11:32:04;1.77;;;1.67;;
12076;SDS011;12420;42.676;23.262;2024-03-08T11:34:33;1.70;;;1.60;;
12076;SDS011;12420;42.676;23.262;2024-03-08T11:37:01;2.17;;;1.90;;
12076;SDS011;12420;42.676;23.262;2024-03-08T11:39:30;2.90;;;2.10;;
12076;SDS011;12420;42.676;23.262;2024-03-08T11:41:58;2.10;;;1.87;;
12076;SDS011;12420;42.676;23.262;2024-03-08T11:44:26;2.30;;;2.10;;
12076;SDS011;12420;42.676;23.262;2024-03-08T11:46:54;2.30;;;2.20;;
12076;SDS011;12420;42.676;23.262;2024-03-08T11:49:22;2.33;;;2.13;;
12076;SDS011;12420;42.676;23.262;2024-03-08T11:51:50;2.43;;;2.23;;
12076;SDS011;12420;42.676;23.262;2024-03-08T11:54:20;3.23;;;2.33;;
12076;SDS011;12420;42.676;23.262;2024-03-08T11:56:46;6.43;;;2.70;;
12076;SDS011;12420;42.676;23.262;2024-03-08T11:59:13;3.37;;;2.10;;
12076;SDS011;12420;42.676;23.262;2024-03-08T12:01:40;2.70;;;2.50;;
12076;SDS011;12420;42.676;23.262;2024-03-08T12:04:11;2.40;;;2.20;;
12076;SDS011;12420;42.676;23.262;2024-03-08T12:06:39;2.70;;;2.20;;
12076;SDS011;12420;42.676;23.262;2024-03-08T12:09:09;2.13;;;2.03;;
12076;SDS011;12420;42.676;23.262;2024-03-08T12:11:39;1.90;;;1.80;;
12076;SDS011;12420;42.676;23.262;2024-03-08T12:14:07;4.77;;;1.90;;
12076;SDS011;12420;42.676;23.262;2024-03-08T12:16:33;2.60;;;2.00;;
12076;SDS011;12420;42.676;23.262;2024-03-08T12:19:02;1.93;;;1.80;;
12076;SDS011;12420;42.676;23.262;2024-03-08T12:21:31;1.80;;;1.70;;
12076;SDS011;12420;42.676;23.262;2024-03-08T12:24:03;1.83;;;1.70;;
12076;SDS011;12420;42.676;23.262;2024-03-08T12:26:34;1.80;;;1.70;;
12076;SDS011;12420;42.676;23.262;2024-03-08T12:29:16;1.63;;;1.53;;
12076;SDS011;12420;42.676;23.262;2024-03-08T12:31:45;3.80;;;1.90;;
12076;SDS011;12420;42.676;23.262;2024-03-08T12:34:12;2.53;;;1.90;;
12076;SDS011;12420;42.676;23.262;2024-03-08T12:36:43;1.57;;;1.50;;
12076;SDS011;12420;42.676;23.262;2024-03-08T12:39:12;2.00;;;1.90;;
12076;SDS011;12420;42.676;23.262;2024-03-08T12:41:41;1.80;;;1.70;;
12076;SDS011;12420;42.676;23.262;2024-03-08T12:44:08;2.13;;;2.00;;
12076;SDS011;12420;42.676;23.262;2024-03-08T12:46:38;2.13;;;2.00;;
12076;SDS011;12420;42.676;23.262;2024-03-08T12:49:07;3.13;;;1.83;;
12076;SDS011;12420;42.676;23.262;2024-03-08T12:51:34;2.23;;;2.00;;
12076;SDS011;12420;42.676;23.262;2024-03-08T12:54:01;2.03;;;1.90;;
12076;SDS011;12420;42.676;23.262;2024-03-08T12:56:29;2.30;;;2.10;;
12076;SDS011;12420;42.676;23.262;2024-03-08T12:58:58;2.27;;;2.17;;
12076;SDS011;12420;42.676;23.262;2024-03-08T13:01:25;2.50;;;2.20;;
12076;SDS011;12420;42.676;23.262;2024-03-08T13:03:54;2.10;;;2.00;;
12076;SDS011;12420;42.676;23.262;2024-03-08T13:06:22;5.73;;;2.20;;
12076;SDS011;12420;42.676;23.262;2024-03-08T13:08:49;4.00;;;2.30;;
12076;SDS011;12420;42.676;23.262;2024-03-08T13:11:17;3.10;;;2.60;;
12076;SDS011;12420;42.676;23.262;2024-03-08T13:13:44;2.13;;;2.03;;
12076;SDS011;12420;42.676;23.262;2024-03-08T13:16:11;2.80;;;2.47;;
12076;SDS011;12420;42.676;23.262;2024-03-08T13:18:40;4.10;;;2.60;;
12076;SDS011;12420;42.676;23.262;2024-03-08T13:21:09;2.70;;;2.50;;
12076;SDS011;12420;42.676;23.262;2024-03-08T13:23:39;2.67;;;2.47;;
12076;SDS011;12420;42.676;23.262;2024-03-08T13:26:11;2.37;;;2.17;;
12076;SDS011;12420;42.676;23.262;2024-03-08T13:28:40;2.33;;;2.10;;
12076;SDS011;12420;42.676;23.262;2024-03-08T13:31:09;3.80;;;2.70;;
12076;SDS011;12420;42.676;23.262;2024-03-08T13:33:37;2.57;;;2.20;;
12076;SDS011;12420;42.676;23.262;2024-03-08T13:36:05;3.60;;;2.40;;
12076;SDS011;12420;42.676;23.262;2024-03-08T13:38:41;2.50;;;2.30;;
12076;SDS011;12420;42.676;23.262;2024-03-08T13:41:09;3.53;;;2.60;;
12076;SDS011;12420;42.676;23.262;2024-03-08T13:43:37;8.93;;;2.50;;
12076;SDS011;12420;42.676;23.262;2024-03-08T13:46:05;3.80;;;2.93;;
12076;SDS011;12420;42.676;23.262;2024-03-08T13:48:32;3.50;;;2.13;;
12076;SDS011;12420;42.676;23.262;2024-03-08T13:50:59;3.10;;;2.00;;
12076;SDS011;12420;42.676;23.262;2024-03-08T13:53:26;3.13;;;1.70;;
12076;SDS011;12420;42.676;23.262;2024-03-08T13:55:54;2.87;;;1.73;;
12076;SDS011;12420;42.676;23.262;2024-03-08T13:58:21;2.57;;;1.80;;
12076;SDS011;12420;42.676;23.262;2024-03-08T14:00:49;1.97;;;1.83;;
12076;SDS011;12420;42.676;23.262;2024-03-08T14:03:16;2.00;;;1.90;;
12076;SDS011;12420;42.676;23.262;2024-03-08T14:05:43;1.97;;;1.83;;
12076;SDS011;12420;42.676;23.262;2024-03-08T14:08:11;3.13;;;1.90;;
12076;SDS011;12420;42.676;23.262;2024-03-08T14:10:39;2.13;;;2.00;;
12076;SDS011;12420;42.676;23.262;2024-03-08T14:13:08;2.00;;;1.90;;
12076;SDS011;12420;42.676;23.262;2024-03-08T14:15:36;2.00;;;1.90;;
12076;SDS011;12420;42.676;23.262;2024-03-08T14:18:07;1.80;;;1.70;;
12076;SDS011;12420;42.676;23.262;2024-03-08T14:20:34;4.23;;;2.07;;
12076;SDS011;12420;42.676;23.262;2024-03-08T14:23:01;2.10;;;1.87;;
12076;SDS011;12420;42.676;23.262;2024-03-08T14:25:28;2.20;;;1.90;;
12076;SDS011;12420;42.676;23.262;2024-03-08T14:27:55;2.50;;;2.20;;
12076;SDS011;12420;42.676;23.262;2024-03-08T14:30:27;5.93;;;2.10;;
12076;SDS011;12420;42.676;23.262;2024-03-08T14:33:03;5.07;;;2.10;;
12076;SDS011;12420;42.676;23.262;2024-03-08T14:35:30;2.30;;;2.00;;
12076;SDS011;12420;42.676;23.262;2024-03-08T14:37:57;3.07;;;2.03;;
12076;SDS011;12420;42.676;23.262;2024-03-08T14:40:25;4.03;;;2.10;;
12076;SDS011;12420;42.676;23.262;2024-03-08T14:42:52;5.27;;;1.90;;